sensor_id;sensor_type;location;lat;lon;timestamp;temperature;humidity
19389;DHT22;9830;41.876;23.474;2023-04-24T00:01:28;5.60;99.90
19389;DHT22;9830;41.876;23.474;2023-04-24T00:03:55;5.60;99.90
19389;DHT22;9830;41.876;23.474;2023-04-24T00:06:25;5.60;99.90
19389;DHT22;9830;41.876;23.474;2023-04-24T00:08:59;5.60;99.90
19389;DHT22;9830;41.876;23.474;2023-04-24T00:11:25;5.60;99.90
19389;DHT22;9830;41.876;23.474;2023-04-24T00:13:50;5.50;99.90
19389;DHT22;9830;41.876;23.474;2023-04-24T00:16:16;5.50;99.90
19389;DHT22;9830;41.876;23.474;2023-04-24T00:18:41;5.50;99.90
19389;DHT22;9830;41.876;23.474;2023-04-24T00:21:07;5.60;99.90
19389;DHT22;9830;41.876;23.474;2023-04-24T00:23:33;5.50;99.90
19389;DHT22;9830;41.876;23.474;2023-04-24T00:25:58;5.50;99.90
19389;DHT22;9830;41.876;23.474;2023-04-24T00:28:24;5.60;99.90
19389;DHT22;9830;41.876;23.474;2023-04-24T00:30:50;5.60;99.90
19389;DHT22;9830;41.876;23.474;2023-04-24T00:33:15;5.60;99.90
19389;DHT22;9830;41.876;23.474;2023-04-24T00:35:41;5.60;99.90
19389;DHT22;9830;41.876;23.474;2023-04-24T00:38:07;5.60;99.90
19389;DHT22;9830;41.876;23.474;2023-04-24T00:40:32;5.60;99.90
19389;DHT22;9830;41.876;23.474;2023-04-24T00:42:58;5.50;99.90
19389;DHT22;9830;41.876;23.474;2023-04-24T00:45:24;5.50;99.90
19389;DHT22;9830;41.876;23.474;2023-04-24T00:47:52;5.50;99.90
19389;DHT22;9830;41.876;23.474;2023-04-24T00:50:18;5.50;99.90
19389;DHT22;9830;41.876;23.474;2023-04-24T00:52:45;5.50;99.90
19389;DHT22;9830;41.876;23.474;2023-04-24T00:55:10;5.50;99.90
19389;DHT22;9830;41.876;23.474;2023-04-24T00:57:37;5.50;99.90
19389;DHT22;9830;41.876;23.474;2023-04-24T01:00:04;5.50;99.90
19389;DHT22;9830;41.876;23.474;2023-04-24T01:02:31;5.60;99.90
19389;DHT22;9830;41.876;23.474;2023-04-24T01:05:00;5.50;99.90
19389;DHT22;9830;41.876;23.474;2023-04-24T01:07:26;5.50;99.90
19389;DHT22;9830;41.876;23.474;2023-04-24T01:09:52;5.60;99.90
19389;DHT22;9830;41.876;23.474;2023-04-24T01:12:18;5.50;99.90
19389;DHT22;9830;41.876;23.474;2023-04-24T01:14:45;5.50;99.90
19389;DHT22;9830;41.876;23.474;2023-04-24T01:17:10;5.40;99.90
19389;DHT22;9830;41.876;23.474;2023-04-24T01:19:36;5.40;99.90
19389;DHT22;9830;41.876;23.474;2023-04-24T01:22:02;5.40;99.90
19389;DHT22;9830;41.876;23.474;2023-04-24T01:24:29;5.30;99.90
19389;DHT22;9830;41.876;23.474;2023-04-24T01:26:55;5.20;99.90
19389;DHT22;9830;41.876;23.474;2023-04-24T01:29:21;5.20;99.90
19389;DHT22;9830;41.876;23.474;2023-04-24T01:31:47;5.10;99.90
19389;DHT22;9830;41.876;23.474;2023-04-24T01:34:13;5.10;99.90
19389;DHT22;9830;41.876;23.474;2023-04-24T01:36:39;5.10;99.90
19389;DHT22;9830;41.876;23.474;2023-04-24T01:39:05;5.10;99.90
19389;DHT22;9830;41.876;23.474;2023-04-24T01:41:31;5.10;99.90
19389;DHT22;9830;41.876;23.474;2023-04-24T01:43:57;5.00;99.90
19389;DHT22;9830;41.876;23.474;2023-04-24T01:46:24;5.10;99.90
19389;DHT22;9830;41.876;23.474;2023-04-24T01:48:51;5.20;99.90
19389;DHT22;9830;41.876;23.474;2023-04-24T01:51:17;5.30;99.90
19389;DHT22;9830;41.876;23.474;2023-04-24T01:53:42;5.40;99.90
19389;DHT22;9830;41.876;23.474;2023-04-24T01:56:08;5.40;99.90
19389;DHT22;9830;41.876;23.474;2023-04-24T01:58:34;5.40;99.90
19389;DHT22;9830;41.876;23.474;2023-04-24T02:01:00;5.40;99.90
19389;DHT22;9830;41.876;23.474;2023-04-24T02:03:26;5.20;99.90
19389;DHT22;9830;41.876;23.474;2023-04-24T02:05:52;5.20;99.90
19389;DHT22;9830;41.876;23.474;2023-04-24T02:08:18;5.10;99.90
19389;DHT22;9830;41.876;23.474;2023-04-24T02:10:43;5.20;99.90
19389;DHT22;9830;41.876;23.474;2023-04-24T02:13:09;5.10;99.90
19389;DHT22;9830;41.876;23.474;2023-04-24T02:15:35;5.10;99.90
19389;DHT22;9830;41.876;23.474;2023-04-24T02:18:01;5.10;99.90
19389;DHT22;9830;41.876;23.474;2023-04-24T02:20:27;4.90;99.90
19389;DHT22;9830;41.876;23.474;2023-04-24T02:22:53;4.90;99.90
19389;DHT22;9830;41.876;23.474;2023-04-24T02:25:18;4.90;99.90
19389;DHT22;9830;41.876;23.474;2023-04-24T02:27:44;4.80;99.90
19389;DHT22;9830;41.876;23.474;2023-04-24T02:30:10;4.80;99.90
19389;DHT22;9830;41.876;23.474;2023-04-24T02:32:35;4.80;99.90
19389;DHT22;9830;41.876;23.474;2023-04-24T02:35:01;4.80;99.90
19389;DHT22;9830;41.876;23.474;2023-04-24T02:37:27;4.80;99.90
19389;DHT22;9830;41.876;23.474;2023-04-24T02:39:52;4.80;99.90
19389;DHT22;9830;41.876;23.474;2023-04-24T02:42:18;4.90;99.90
19389;DHT22;9830;41.876;23.474;2023-04-24T02:44:44;4.90;99.90
19389;DHT22;9830;41.876;23.474;2023-04-24T02:47:09;5.00;99.90
19389;DHT22;9830;41.876;23.474;2023-04-24T02:49:35;5.00;99.90
19389;DHT22;9830;41.876;23.474;2023-04-24T02:52:01;4.90;99.90
19389;DHT22;9830;41.876;23.474;2023-04-24T02:54:26;4.90;99.90
19389;DHT22;9830;41.876;23.474;2023-04-24T02:56:52;4.90;99.90
19389;DHT22;9830;41.876;23.474;2023-04-24T02:59:18;5.00;99.90
19389;DHT22;9830;41.876;23.474;2023-04-24T03:01:43;5.00;99.90
19389;DHT22;9830;41.876;23.474;2023-04-24T03:04:09;5.00;99.90
19389;DHT22;9830;41.876;23.474;2023-04-24T03:06:35;4.80;99.90
19389;DHT22;9830;41.876;23.474;2023-04-24T03:09:01;4.90;99.90
19389;DHT22;9830;41.876;23.474;2023-04-24T03:11:27;4.90;99.90
19389;DHT22;9830;41.876;23.474;2023-04-24T03:13:52;4.80;99.90
19389;DHT22;9830;41.876;23.474;2023-04-24T03:16:18;4.80;99.90
19389;DHT22;9830;41.876;23.474;2023-04-24T03:18:44;4.80;99.90
19389;DHT22;9830;41.876;23.474;2023-04-24T03:21:10;4.80;99.90
19389;DHT22;9830;41.876;23.474;2023-04-24T03:23:36;4.90;99.90
19389;DHT22;9830;41.876;23.474;2023-04-24T03:26:02;4.80;99.90
19389;DHT22;9830;41.876;23.474;2023-04-24T03:28:28;4.80;99.90
19389;DHT22;9830;41.876;23.474;2023-04-24T03:30:53;4.80;99.90
19389;DHT22;9830;41.876;23.474;2023-04-24T03:33:19;4.80;99.90
19389;DHT22;9830;41.876;23.474;2023-04-24T03:35:45;4.80;99.90
19389;DHT22;9830;41.876;23.474;2023-04-24T03:38:11;4.80;99.90
19389;DHT22;9830;41.876;23.474;2023-04-24T03:40:36;4.90;99.90
19389;DHT22;9830;41.876;23.474;2023-04-24T03:43:02;4.80;99.90
19389;DHT22;9830;41.876;23.474;2023-04-24T03:45:28;4.80;99.90
19389;DHT22;9830;41.876;23.474;2023-04-24T03:47:53;4.90;99.90
19389;DHT22;9830;41.876;23.474;2023-04-24T03:50:20;4.70;99.90
19389;DHT22;9830;41.876;23.474;2023-04-24T03:52:45;4.70;99.90
19389;DHT22;9830;41.876;23.474;2023-04-24T03:55:11;4.70;99.90
19389;DHT22;9830;41.876;23.474;2023-04-24T03:57:42;4.70;99.90
19389;DHT22;9830;41.876;23.474;2023-04-24T04:00:08;4.70;99.90
19389;DHT22;9830;41.876;23.474;2023-04-24T04:02:34;4.90;99.90
19389;DHT22;9830;41.876;23.474;2023-04-24T04:05:00;4.90;99.90
19389;DHT22;9830;41.876;23.474;2023-04-24T04:07:25;5.00;99.90
19389;DHT22;9830;41.876;23.474;2023-04-24T04:09:51;5.10;99.90
19389;DHT22;9830;41.876;23.474;2023-04-24T04:12:17;5.20;99.90
19389;DHT22;9830;41.876;23.474;2023-04-24T04:14:42;5.20;99.90
19389;DHT22;9830;41.876;23.474;2023-04-24T04:17:08;5.30;99.90
19389;DHT22;9830;41.876;23.474;2023-04-24T04:19:34;5.30;99.90
19389;DHT22;9830;41.876;23.474;2023-04-24T04:21:59;5.50;99.90
19389;DHT22;9830;41.876;23.474;2023-04-24T04:24:25;5.60;99.90
19389;DHT22;9830;41.876;23.474;2023-04-24T04:26:51;5.70;99.90
19389;DHT22;9830;41.876;23.474;2023-04-24T04:29:17;5.80;99.90
19389;DHT22;9830;41.876;23.474;2023-04-24T04:31:48;5.80;99.90
19389;DHT22;9830;41.876;23.474;2023-04-24T04:34:13;5.80;99.90
19389;DHT22;9830;41.876;23.474;2023-04-24T04:36:40;6.10;99.90
19389;DHT22;9830;41.876;23.474;2023-04-24T04:39:08;6.40;99.90
19389;DHT22;9830;41.876;23.474;2023-04-24T04:41:34;6.70;99.90
19389;DHT22;9830;41.876;23.474;2023-04-24T04:44:05;7.00;99.90
19389;DHT22;9830;41.876;23.474;2023-04-24T04:46:31;7.10;99.90
19389;DHT22;9830;41.876;23.474;2023-04-24T04:49:02;7.10;99.90
19389;DHT22;9830;41.876;23.474;2023-04-24T04:51:28;7.20;99.90
19389;DHT22;9830;41.876;23.474;2023-04-24T04:53:54;7.50;99.90
19389;DHT22;9830;41.876;23.474;2023-04-24T04:56:20;7.60;99.90
19389;DHT22;9830;41.876;23.474;2023-04-24T04:58:46;7.80;99.90
19389;DHT22;9830;41.876;23.474;2023-04-24T05:01:11;7.90;99.90
19389;DHT22;9830;41.876;23.474;2023-04-24T05:03:37;8.30;99.90
19389;DHT22;9830;41.876;23.474;2023-04-24T05:06:04;8.70;99.90
19389;DHT22;9830;41.876;23.474;2023-04-24T05:08:30;8.80;99.90
19389;DHT22;9830;41.876;23.474;2023-04-24T05:10:56;9.20;99.90
19389;DHT22;9830;41.876;23.474;2023-04-24T05:13:21;9.40;99.90
19389;DHT22;9830;41.876;23.474;2023-04-24T05:15:47;9.30;99.90
19389;DHT22;9830;41.876;23.474;2023-04-24T05:18:13;9.50;99.90
19389;DHT22;9830;41.876;23.474;2023-04-24T05:20:39;9.60;99.90
19389;DHT22;9830;41.876;23.474;2023-04-24T05:23:05;9.70;99.90
19389;DHT22;9830;41.876;23.474;2023-04-24T05:25:33;9.90;99.90
19389;DHT22;9830;41.876;23.474;2023-04-24T05:28:01;10.30;99.90
19389;DHT22;9830;41.876;23.474;2023-04-24T05:30:27;10.50;99.90
19389;DHT22;9830;41.876;23.474;2023-04-24T05:32:53;11.10;99.90
19389;DHT22;9830;41.876;23.474;2023-04-24T05:35:21;11.30;99.90
19389;DHT22;9830;41.876;23.474;2023-04-24T05:37:47;11.40;99.90
19389;DHT22;9830;41.876;23.474;2023-04-24T05:40:13;11.90;99.90
19389;DHT22;9830;41.876;23.474;2023-04-24T05:42:39;11.80;99.90
19389;DHT22;9830;41.876;23.474;2023-04-24T05:45:06;11.50;99.90
19389;DHT22;9830;41.876;23.474;2023-04-24T05:47:32;11.10;99.90
19389;DHT22;9830;41.876;23.474;2023-04-24T05:49:58;10.90;99.90
19389;DHT22;9830;41.876;23.474;2023-04-24T05:52:23;10.90;99.90
19389;DHT22;9830;41.876;23.474;2023-04-24T05:54:50;10.50;99.90
19389;DHT22;9830;41.876;23.474;2023-04-24T05:57:16;10.70;99.90
19389;DHT22;9830;41.876;23.474;2023-04-24T05:59:42;10.80;99.90
19389;DHT22;9830;41.876;23.474;2023-04-24T06:02:07;10.80;99.90
19389;DHT22;9830;41.876;23.474;2023-04-24T06:04:33;10.70;99.90
19389;DHT22;9830;41.876;23.474;2023-04-24T06:06:59;10.60;99.90
19389;DHT22;9830;41.876;23.474;2023-04-24T06:09:26;10.90;99.90
19389;DHT22;9830;41.876;23.474;2023-04-24T06:11:51;13.00;99.90
19389;DHT22;9830;41.876;23.474;2023-04-24T06:14:21;15.60;99.90
19389;DHT22;9830;41.876;23.474;2023-04-24T06:16:47;17.40;98.10
19389;DHT22;9830;41.876;23.474;2023-04-24T06:19:13;17.90;92.00
19389;DHT22;9830;41.876;23.474;2023-04-24T06:21:40;17.20;92.30
19389;DHT22;9830;41.876;23.474;2023-04-24T06:24:14;16.10;95.80
19389;DHT22;9830;41.876;23.474;2023-04-24T06:26:41;15.60;97.30
19389;DHT22;9830;41.876;23.474;2023-04-24T06:29:07;15.40;97.40
19389;DHT22;9830;41.876;23.474;2023-04-24T06:31:33;16.30;97.40
19389;DHT22;9830;41.876;23.474;2023-04-24T06:34:05;16.80;94.20
19389;DHT22;9830;41.876;23.474;2023-04-24T06:36:31;17.80;88.20
19389;DHT22;9830;41.876;23.474;2023-04-24T06:38:59;17.40;89.10
19389;DHT22;9830;41.876;23.474;2023-04-24T06:41:26;17.70;88.20
19389;DHT22;9830;41.876;23.474;2023-04-24T06:43:51;18.00;78.80
19389;DHT22;9830;41.876;23.474;2023-04-24T06:46:17;20.30;67.40
19389;DHT22;9830;41.876;23.474;2023-04-24T06:48:43;22.00;55.80
19389;DHT22;9830;41.876;23.474;2023-04-24T06:51:09;21.60;55.40
19389;DHT22;9830;41.876;23.474;2023-04-24T06:53:35;22.50;52.00
19389;DHT22;9830;41.876;23.474;2023-04-24T06:56:01;22.90;49.10
19389;DHT22;9830;41.876;23.474;2023-04-24T06:58:27;23.40;48.40
19389;DHT22;9830;41.876;23.474;2023-04-24T07:00:53;22.80;48.50
19389;DHT22;9830;41.876;23.474;2023-04-24T07:03:21;21.80;55.90
19389;DHT22;9830;41.876;23.474;2023-04-24T07:05:49;21.00;55.60
19389;DHT22;9830;41.876;23.474;2023-04-24T07:08:16;21.60;58.40
19389;DHT22;9830;41.876;23.474;2023-04-24T07:10:44;22.00;52.70
19389;DHT22;9830;41.876;23.474;2023-04-24T07:13:10;22.50;51.70
19389;DHT22;9830;41.876;23.474;2023-04-24T07:15:39;25.10;44.30
19389;DHT22;9830;41.876;23.474;2023-04-24T07:18:06;26.00;42.40
19389;DHT22;9830;41.876;23.474;2023-04-24T07:20:34;25.10;42.70
19389;DHT22;9830;41.876;23.474;2023-04-24T07:23:00;26.00;40.80
19389;DHT22;9830;41.876;23.474;2023-04-24T07:25:26;25.60;40.70
19389;DHT22;9830;41.876;23.474;2023-04-24T07:27:55;24.90;41.10
19389;DHT22;9830;41.876;23.474;2023-04-24T07:30:21;23.50;46.40
19389;DHT22;9830;41.876;23.474;2023-04-24T07:32:47;23.20;46.70
19389;DHT22;9830;41.876;23.474;2023-04-24T07:35:13;23.40;45.50
19389;DHT22;9830;41.876;23.474;2023-04-24T07:37:38;22.10;51.10
19389;DHT22;9830;41.876;23.474;2023-04-24T07:40:07;23.20;48.30
19389;DHT22;9830;41.876;23.474;2023-04-24T07:42:37;23.40;46.80
19389;DHT22;9830;41.876;23.474;2023-04-24T07:45:04;23.40;45.90
19389;DHT22;9830;41.876;23.474;2023-04-24T07:47:31;23.70;45.60
19389;DHT22;9830;41.876;23.474;2023-04-24T07:49:58;24.60;43.60
19389;DHT22;9830;41.876;23.474;2023-04-24T07:52:24;24.60;45.20
19389;DHT22;9830;41.876;23.474;2023-04-24T07:54:50;24.70;44.40
19389;DHT22;9830;41.876;23.474;2023-04-24T07:57:18;25.80;43.20
19389;DHT22;9830;41.876;23.474;2023-04-24T07:59:44;25.30;42.90
19389;DHT22;9830;41.876;23.474;2023-04-24T08:02:10;25.00;43.50
19389;DHT22;9830;41.876;23.474;2023-04-24T08:04:36;27.00;40.80
19389;DHT22;9830;41.876;23.474;2023-04-24T08:07:02;28.60;37.60
19389;DHT22;9830;41.876;23.474;2023-04-24T08:09:28;26.60;40.00
19389;DHT22;9830;41.876;23.474;2023-04-24T08:11:54;26.10;41.20
19389;DHT22;9830;41.876;23.474;2023-04-24T08:14:20;26.10;41.30
19389;DHT22;9830;41.876;23.474;2023-04-24T08:16:46;25.50;42.70
19389;DHT22;9830;41.876;23.474;2023-04-24T08:19:12;25.20;44.70
19389;DHT22;9830;41.876;23.474;2023-04-24T08:21:38;25.10;44.50
19389;DHT22;9830;41.876;23.474;2023-04-24T08:24:04;27.10;40.50
19389;DHT22;9830;41.876;23.474;2023-04-24T08:26:33;26.30;40.60
19389;DHT22;9830;41.876;23.474;2023-04-24T08:28:58;26.30;41.80
19389;DHT22;9830;41.876;23.474;2023-04-24T08:31:25;27.00;39.10
19389;DHT22;9830;41.876;23.474;2023-04-24T08:33:51;27.40;38.70
19389;DHT22;9830;41.876;23.474;2023-04-24T08:36:17;26.90;39.30
19389;DHT22;9830;41.876;23.474;2023-04-24T08:38:46;26.30;41.20
19389;DHT22;9830;41.876;23.474;2023-04-24T08:41:14;27.00;40.10
19389;DHT22;9830;41.876;23.474;2023-04-24T08:43:40;29.00;36.60
19389;DHT22;9830;41.876;23.474;2023-04-24T08:46:07;29.40;36.60
19389;DHT22;9830;41.876;23.474;2023-04-24T08:48:34;28.60;37.10
19389;DHT22;9830;41.876;23.474;2023-04-24T08:51:00;28.10;37.00
19389;DHT22;9830;41.876;23.474;2023-04-24T08:53:28;27.60;38.50
19389;DHT22;9830;41.876;23.474;2023-04-24T08:55:55;26.80;40.00
19389;DHT22;9830;41.876;23.474;2023-04-24T08:58:28;28.30;38.00
19389;DHT22;9830;41.876;23.474;2023-04-24T09:00:57;28.30;40.10
19389;DHT22;9830;41.876;23.474;2023-04-24T09:03:28;28.00;39.00
19389;DHT22;9830;41.876;23.474;2023-04-24T09:05:55;28.50;37.00
19389;DHT22;9830;41.876;23.474;2023-04-24T09:08:25;28.40;37.00
19389;DHT22;9830;41.876;23.474;2023-04-24T09:10:54;28.50;37.50
19389;DHT22;9830;41.876;23.474;2023-04-24T09:13:20;31.50;33.90
19389;DHT22;9830;41.876;23.474;2023-04-24T09:15:47;29.70;35.10
19389;DHT22;9830;41.876;23.474;2023-04-24T09:18:13;30.10;36.30
19389;DHT22;9830;41.876;23.474;2023-04-24T09:21:00;29.50;35.80
19389;DHT22;9830;41.876;23.474;2023-04-24T09:23:30;29.10;35.20
19389;DHT22;9830;41.876;23.474;2023-04-24T09:25:58;28.10;36.40
19389;DHT22;9830;41.876;23.474;2023-04-24T09:28:38;28.10;38.40
19389;DHT22;9830;41.876;23.474;2023-04-24T09:31:15;28.50;37.20
19389;DHT22;9830;41.876;23.474;2023-04-24T09:34:00;28.50;37.60
19389;DHT22;9830;41.876;23.474;2023-04-24T09:36:33;29.30;36.10
19389;DHT22;9830;41.876;23.474;2023-04-24T09:39:00;29.40;35.70
19389;DHT22;9830;41.876;23.474;2023-04-24T09:41:27;29.60;35.70
19389;DHT22;9830;41.876;23.474;2023-04-24T09:43:57;29.10;36.30
19389;DHT22;9830;41.876;23.474;2023-04-24T09:46:34;28.20;37.00
19389;DHT22;9830;41.876;23.474;2023-04-24T09:49:14;26.80;37.20
19389;DHT22;9830;41.876;23.474;2023-04-24T09:51:45;26.30;39.50
19389;DHT22;9830;41.876;23.474;2023-04-24T09:54:16;24.70;41.90
19389;DHT22;9830;41.876;23.474;2023-04-24T09:56:44;24.50;44.40
19389;DHT22;9830;41.876;23.474;2023-04-24T09:59:32;24.90;40.60
19389;DHT22;9830;41.876;23.474;2023-04-24T10:01:57;25.30;41.40
19389;DHT22;9830;41.876;23.474;2023-04-24T10:04:26;25.10;40.90
19389;DHT22;9830;41.876;23.474;2023-04-24T10:06:55;24.80;40.30
19389;DHT22;9830;41.876;23.474;2023-04-24T10:09:24;24.30;41.00
19389;DHT22;9830;41.876;23.474;2023-04-24T10:11:53;22.80;44.50
19389;DHT22;9830;41.876;23.474;2023-04-24T10:14:25;22.60;45.80
19389;DHT22;9830;41.876;23.474;2023-04-24T10:16:54;22.00;43.60
19389;DHT22;9830;41.876;23.474;2023-04-24T10:19:20;22.00;44.80
19389;DHT22;9830;41.876;23.474;2023-04-24T10:21:47;21.90;44.20
19389;DHT22;9830;41.876;23.474;2023-04-24T10:24:17;22.20;44.20
19389;DHT22;9830;41.876;23.474;2023-04-24T10:26:45;21.80;44.80
19389;DHT22;9830;41.876;23.474;2023-04-24T10:29:16;21.40;47.30
19389;DHT22;9830;41.876;23.474;2023-04-24T10:31:43;20.60;48.30
19389;DHT22;9830;41.876;23.474;2023-04-24T10:34:15;20.20;50.30
19389;DHT22;9830;41.876;23.474;2023-04-24T10:36:48;20.90;55.00
19389;DHT22;9830;41.876;23.474;2023-04-24T10:39:22;21.40;47.90
19389;DHT22;9830;41.876;23.474;2023-04-24T10:41:57;21.20;50.50
19389;DHT22;9830;41.876;23.474;2023-04-24T10:44:24;20.80;54.30
19389;DHT22;9830;41.876;23.474;2023-04-24T10:46:54;20.70;50.50
19389;DHT22;9830;41.876;23.474;2023-04-24T10:49:31;20.80;52.40
19389;DHT22;9830;41.876;23.474;2023-04-24T10:52:03;21.10;52.40
19389;DHT22;9830;41.876;23.474;2023-04-24T10:54:46;21.30;52.60
19389;DHT22;9830;41.876;23.474;2023-04-24T10:59:51;21.60;48.30
19389;DHT22;9830;41.876;23.474;2023-04-24T11:02:36;22.00;47.30
19389;DHT22;9830;41.876;23.474;2023-04-24T11:05:09;22.40;50.40
19389;DHT22;9830;41.876;23.474;2023-04-24T11:08:15;22.60;46.20
19389;DHT22;9830;41.876;23.474;2023-04-24T11:10:45;21.40;46.50
19389;DHT22;9830;41.876;23.474;2023-04-24T11:13:16;21.10;48.70
19389;DHT22;9830;41.876;23.474;2023-04-24T11:19:03;21.50;48.20
19389;DHT22;9830;41.876;23.474;2023-04-24T11:21:40;21.10;46.70
19389;DHT22;9830;41.876;23.474;2023-04-24T11:24:30;21.20;45.70
19389;DHT22;9830;41.876;23.474;2023-04-24T11:27:09;21.00;48.10
19389;DHT22;9830;41.876;23.474;2023-04-24T11:32:27;21.10;45.00
19389;DHT22;9830;41.876;23.474;2023-04-24T11:37:33;21.50;48.40
19389;DHT22;9830;41.876;23.474;2023-04-24T11:40:10;22.10;47.30
19389;DHT22;9830;41.876;23.474;2023-04-24T11:42:38;22.80;45.10
19389;DHT22;9830;41.876;23.474;2023-04-24T11:45:12;23.10;45.90
19389;DHT22;9830;41.876;23.474;2023-04-24T11:47:45;22.80;45.80
19389;DHT22;9830;41.876;23.474;2023-04-24T11:50:13;23.20;46.80
19389;DHT22;9830;41.876;23.474;2023-04-24T11:52:42;23.30;45.00
19389;DHT22;9830;41.876;23.474;2023-04-24T11:55:29;22.90;45.00
19389;DHT22;9830;41.876;23.474;2023-04-24T11:57:57;22.60;48.00
19389;DHT22;9830;41.876;23.474;2023-04-24T12:00:29;22.40;48.70
19389;DHT22;9830;41.876;23.474;2023-04-24T12:03:24;22.10;42.40
19389;DHT22;9830;41.876;23.474;2023-04-24T12:05:51;22.20;45.70
19389;DHT22;9830;41.876;23.474;2023-04-24T12:08:36;22.20;42.60
19389;DHT22;9830;41.876;23.474;2023-04-24T12:11:06;22.00;43.60
19389;DHT22;9830;41.876;23.474;2023-04-24T12:13:34;22.30;43.20
19389;DHT22;9830;41.876;23.474;2023-04-24T12:16:06;22.10;41.60
19389;DHT22;9830;41.876;23.474;2023-04-24T12:18:33;22.20;42.50
19389;DHT22;9830;41.876;23.474;2023-04-24T12:23:44;23.10;40.10
19389;DHT22;9830;41.876;23.474;2023-04-24T12:26:12;23.70;40.70
19389;DHT22;9830;41.876;23.474;2023-04-24T12:28:41;24.40;39.40
19389;DHT22;9830;41.876;23.474;2023-04-24T12:31:08;24.60;38.00
19389;DHT22;9830;41.876;23.474;2023-04-24T12:33:36;24.60;39.10
19389;DHT22;9830;41.876;23.474;2023-04-24T12:36:10;24.30;38.60
19389;DHT22;9830;41.876;23.474;2023-04-24T12:38:43;23.90;38.20
19389;DHT22;9830;41.876;23.474;2023-04-24T12:41:14;23.60;39.30
19389;DHT22;9830;41.876;23.474;2023-04-24T12:44:01;23.20;39.30
19389;DHT22;9830;41.876;23.474;2023-04-24T12:46:27;23.20;36.50
19389;DHT22;9830;41.876;23.474;2023-04-24T12:51:33;23.10;37.90
19389;DHT22;9830;41.876;23.474;2023-04-24T12:54:00;23.30;38.60
19389;DHT22;9830;41.876;23.474;2023-04-24T12:56:27;22.60;41.60
19389;DHT22;9830;41.876;23.474;2023-04-24T12:58:53;22.20;44.40
19389;DHT22;9830;41.876;23.474;2023-04-24T13:01:21;22.30;45.30
19389;DHT22;9830;41.876;23.474;2023-04-24T13:03:50;21.70;46.70
19389;DHT22;9830;41.876;23.474;2023-04-24T13:06:20;21.60;45.60
19389;DHT22;9830;41.876;23.474;2023-04-24T13:08:49;21.70;46.80
19389;DHT22;9830;41.876;23.474;2023-04-24T13:11:17;21.80;45.20
19389;DHT22;9830;41.876;23.474;2023-04-24T13:13:43;21.70;44.50
19389;DHT22;9830;41.876;23.474;2023-04-24T13:16:09;21.60;43.70
19389;DHT22;9830;41.876;23.474;2023-04-24T13:18:40;21.80;43.30
19389;DHT22;9830;41.876;23.474;2023-04-24T13:21:07;21.90;44.30
19389;DHT22;9830;41.876;23.474;2023-04-24T13:23:34;22.30;44.20
19389;DHT22;9830;41.876;23.474;2023-04-24T13:26:03;22.60;43.80
19389;DHT22;9830;41.876;23.474;2023-04-24T13:28:30;22.70;44.70
19389;DHT22;9830;41.876;23.474;2023-04-24T13:30:57;23.20;41.60
19389;DHT22;9830;41.876;23.474;2023-04-24T13:33:23;23.40;38.60
19389;DHT22;9830;41.876;23.474;2023-04-24T13:35:50;23.50;37.40
19389;DHT22;9830;41.876;23.474;2023-04-24T13:38:16;23.50;36.20
19389;DHT22;9830;41.876;23.474;2023-04-24T13:40:45;23.50;38.20
19389;DHT22;9830;41.876;23.474;2023-04-24T13:43:12;23.30;39.00
19389;DHT22;9830;41.876;23.474;2023-04-24T13:45:41;23.00;38.90
19389;DHT22;9830;41.876;23.474;2023-04-24T13:48:07;23.00;38.40
19389;DHT22;9830;41.876;23.474;2023-04-24T13:50:36;23.10;37.60
19389;DHT22;9830;41.876;23.474;2023-04-24T13:53:03;22.70;36.20
19389;DHT22;9830;41.876;23.474;2023-04-24T13:55:32;22.70;36.40
19389;DHT22;9830;41.876;23.474;2023-04-24T13:57:58;23.10;37.50
19389;DHT22;9830;41.876;23.474;2023-04-24T14:00:28;23.20;35.20
19389;DHT22;9830;41.876;23.474;2023-04-24T14:02:54;23.40;34.70
19389;DHT22;9830;41.876;23.474;2023-04-24T14:05:20;23.60;35.20
19389;DHT22;9830;41.876;23.474;2023-04-24T14:07:47;23.20;35.30
19389;DHT22;9830;41.876;23.474;2023-04-24T14:10:13;23.10;35.60
19389;DHT22;9830;41.876;23.474;2023-04-24T14:12:38;22.80;36.10
19389;DHT22;9830;41.876;23.474;2023-04-24T14:15:05;23.00;37.20
19389;DHT22;9830;41.876;23.474;2023-04-24T14:17:31;22.90;37.40
19389;DHT22;9830;41.876;23.474;2023-04-24T14:19:57;22.40;38.30
19389;DHT22;9830;41.876;23.474;2023-04-24T14:22:25;22.30;39.60
19389;DHT22;9830;41.876;23.474;2023-04-24T14:24:50;22.30;36.60
19389;DHT22;9830;41.876;23.474;2023-04-24T14:27:16;22.40;40.40
19389;DHT22;9830;41.876;23.474;2023-04-24T14:29:42;22.40;39.70
19389;DHT22;9830;41.876;23.474;2023-04-24T14:32:08;22.10;39.50
19389;DHT22;9830;41.876;23.474;2023-04-24T14:34:34;22.20;40.60
19389;DHT22;9830;41.876;23.474;2023-04-24T14:37:00;22.00;41.00
19389;DHT22;9830;41.876;23.474;2023-04-24T14:39:26;21.90;38.20
19389;DHT22;9830;41.876;23.474;2023-04-24T14:41:51;22.00;40.50
19389;DHT22;9830;41.876;23.474;2023-04-24T14:44:17;21.50;40.40
19389;DHT22;9830;41.876;23.474;2023-04-24T14:46:43;21.20;43.00
19389;DHT22;9830;41.876;23.474;2023-04-24T14:49:09;21.30;42.30
19389;DHT22;9830;41.876;23.474;2023-04-24T14:51:36;21.00;43.00
19389;DHT22;9830;41.876;23.474;2023-04-24T14:54:01;20.60;42.50
19389;DHT22;9830;41.876;23.474;2023-04-24T14:56:28;20.30;44.60
19389;DHT22;9830;41.876;23.474;2023-04-24T14:58:53;20.00;45.30
19389;DHT22;9830;41.876;23.474;2023-04-24T15:01:20;20.00;46.50
19389;DHT22;9830;41.876;23.474;2023-04-24T15:03:46;20.00;47.30
19389;DHT22;9830;41.876;23.474;2023-04-24T15:06:12;19.90;45.00
19389;DHT22;9830;41.876;23.474;2023-04-24T15:08:38;19.90;47.20
19389;DHT22;9830;41.876;23.474;2023-04-24T15:11:04;19.90;44.10
19389;DHT22;9830;41.876;23.474;2023-04-24T15:13:29;19.60;45.60
19389;DHT22;9830;41.876;23.474;2023-04-24T15:15:55;19.60;47.00
19389;DHT22;9830;41.876;23.474;2023-04-24T15:18:21;19.40;46.10
19389;DHT22;9830;41.876;23.474;2023-04-24T15:20:46;19.30;47.20
19389;DHT22;9830;41.876;23.474;2023-04-24T15:23:12;19.00;46.10
19389;DHT22;9830;41.876;23.474;2023-04-24T15:25:38;18.90;47.30
19389;DHT22;9830;41.876;23.474;2023-04-24T15:28:04;18.80;46.10
19389;DHT22;9830;41.876;23.474;2023-04-24T15:30:33;18.70;48.30
19389;DHT22;9830;41.876;23.474;2023-04-24T15:33:00;18.60;49.30
19389;DHT22;9830;41.876;23.474;2023-04-24T15:35:27;18.60;51.10
19389;DHT22;9830;41.876;23.474;2023-04-24T15:37:52;18.40;52.20
19389;DHT22;9830;41.876;23.474;2023-04-24T15:40:18;18.40;51.00
19389;DHT22;9830;41.876;23.474;2023-04-24T15:42:44;18.40;47.50
19389;DHT22;9830;41.876;23.474;2023-04-24T15:45:11;18.40;47.40
19389;DHT22;9830;41.876;23.474;2023-04-24T15:47:37;18.40;47.20
19389;DHT22;9830;41.876;23.474;2023-04-24T15:50:04;18.40;48.20
19389;DHT22;9830;41.876;23.474;2023-04-24T15:52:30;18.40;48.20
19389;DHT22;9830;41.876;23.474;2023-04-24T15:54:56;18.30;48.90